<?xml version="1.0" encoding="UTF-8" standalone="no" ?>
<gpx xmlns="http://www.topografix.com/GPX/1/1" xmlns:xsi="http://www.w3.org/2001/XMLSchema-instance" xsi:schemaLocation="http://www.topografix.com/GPX/1/1 http://www.topografix.com/GPX/1/1/gpx.xsd" version="1.1" creator="VisuGPX - https://www.visugpx.com">
  <metadata>
    <name>Pic Pombie boucle -64-Ski</name>
    <desc><![CDATA[Jolie boucle à réaliser quand la piste de ski de fond est enneigée]]></desc>
  </metadata>
  <trk>
    <name><![CDATA[2023-02-11 Pic Pombie boucle ]]></name>
    <desc><![CDATA[<p>Heure de départ: 09:28 11 févr. 2023<br/>Heure d'arrivée: 14:17 11 févr. 2023<br/>Distance: 10,6 km (04:48)<br/>Temps déplacement: 02:12<br/>Vitesse moyenne: 2,2 km/h<br/>Vitesse moyenne mouv.: 4,78 km/h<br/>Vitesse Max.: 29,89 km/h<br/>Altitude minimale: 1259 m<br/>Altitude maximale: 2193 m<br/>Vitesse de montée: 373 m/h<br/>Vitesse de descente: -433,5 m/h<br/>Gain d'altitude: 964 m<br/>Perte d'altitude: -963 m<br/>Temps de montée: 02:35<br/>Temps de descente: 02:13<br/></p><hr align="center" width="480" style="height: 2px; width: 517px"/>]]></desc>
    <trkseg>
      <trkpt lat="42.86406" lon="-0.39285">
        <ele>1259</ele>
        <time>2023-02-11T08:28:48Z</time>
      </trkpt>
      <trkpt lat="42.86387" lon="-0.3929">
        <ele>1259</ele>
        <time>2023-02-11T08:29:18Z</time>
      </trkpt>
      <trkpt lat="42.86368" lon="-0.39286">
        <ele>1259</ele>
        <time>2023-02-11T08:29:33Z</time>
      </trkpt>
      <trkpt lat="42.86297" lon="-0.39295">
        <ele>1270.9</ele>
        <time>2023-02-11T08:31:38Z</time>
      </trkpt>
      <trkpt lat="42.8628" lon="-0.39306">
        <ele>1284.4</ele>
        <time>2023-02-11T08:32:17Z</time>
      </trkpt>
      <trkpt lat="42.86262" lon="-0.39317">
        <ele>1296</ele>
        <time>2023-02-11T08:34:42Z</time>
      </trkpt>
      <trkpt lat="42.86246" lon="-0.39333">
        <ele>1302.37</ele>
        <time>2023-02-11T08:34:50Z</time>
      </trkpt>
      <trkpt lat="42.86232" lon="-0.3935">
        <ele>1319.99</ele>
        <time>2023-02-11T08:34:56Z</time>
      </trkpt>
      <trkpt lat="42.86216" lon="-0.39336">
        <ele>1323.99</ele>
        <time>2023-02-11T08:35:05Z</time>
      </trkpt>
      <trkpt lat="42.86197" lon="-0.39331">
        <ele>1310</ele>
        <time>2023-02-11T08:35:31Z</time>
      </trkpt>
      <trkpt lat="42.86179" lon="-0.39335">
        <ele>1328.74</ele>
        <time>2023-02-11T08:35:56Z</time>
      </trkpt>
      <trkpt lat="42.86161" lon="-0.39333">
        <ele>1324.2</ele>
        <time>2023-02-11T08:37:21Z</time>
      </trkpt>
      <trkpt lat="42.86142" lon="-0.3934">
        <ele>1334</ele>
        <time>2023-02-11T08:40:14Z</time>
      </trkpt>
      <trkpt lat="42.86124" lon="-0.3935">
        <ele>1333</ele>
        <time>2023-02-11T08:40:25Z</time>
      </trkpt>
      <trkpt lat="42.86109" lon="-0.39363">
        <ele>1342.1</ele>
        <time>2023-02-11T08:40:35Z</time>
      </trkpt>
      <trkpt lat="42.8609" lon="-0.39369">
        <ele>1343</ele>
        <time>2023-02-11T08:40:47Z</time>
      </trkpt>
      <trkpt lat="42.86074" lon="-0.39381">
        <ele>1345</ele>
        <time>2023-02-11T08:41:03Z</time>
      </trkpt>
      <trkpt lat="42.86092" lon="-0.39389">
        <ele>1352.12</ele>
        <time>2023-02-11T08:42:12Z</time>
      </trkpt>
      <trkpt lat="42.8611" lon="-0.3939">
        <ele>1356</ele>
        <time>2023-02-11T08:42:35Z</time>
      </trkpt>
      <trkpt lat="42.86102" lon="-0.39413">
        <ele>1356</ele>
        <time>2023-02-11T08:43:00Z</time>
      </trkpt>
      <trkpt lat="42.8609" lon="-0.39435">
        <ele>1370</ele>
        <time>2023-02-11T08:43:42Z</time>
      </trkpt>
      <trkpt lat="42.86079" lon="-0.39455">
        <ele>1383.98</ele>
        <time>2023-02-11T08:43:50Z</time>
      </trkpt>
      <trkpt lat="42.86062" lon="-0.39465">
        <ele>1384</ele>
        <time>2023-02-11T08:45:13Z</time>
      </trkpt>
      <trkpt lat="42.86046" lon="-0.39478">
        <ele>1394</ele>
        <time>2023-02-11T08:45:53Z</time>
      </trkpt>
      <trkpt lat="42.86033" lon="-0.39497">
        <ele>1394</ele>
        <time>2023-02-11T08:46:08Z</time>
      </trkpt>
      <trkpt lat="42.86019" lon="-0.39511">
        <ele>1403</ele>
        <time>2023-02-11T08:46:30Z</time>
      </trkpt>
      <trkpt lat="42.86" lon="-0.39512">
        <ele>1403</ele>
        <time>2023-02-11T08:47:47Z</time>
      </trkpt>
      <trkpt lat="42.85985" lon="-0.395">
        <ele>1385.12</ele>
        <time>2023-02-11T08:47:58Z</time>
      </trkpt>
      <trkpt lat="42.85983" lon="-0.39526">
        <ele>1400</ele>
        <time>2023-02-11T08:50:31Z</time>
      </trkpt>
      <trkpt lat="42.85972" lon="-0.39546">
        <ele>1411.08</ele>
        <time>2023-02-11T08:50:51Z</time>
      </trkpt>
      <trkpt lat="42.85956" lon="-0.39561">
        <ele>1424.62</ele>
        <time>2023-02-11T08:51:17Z</time>
      </trkpt>
      <trkpt lat="42.85939" lon="-0.3957">
        <ele>1421</ele>
        <time>2023-02-11T08:51:42Z</time>
      </trkpt>
      <trkpt lat="42.85921" lon="-0.39577">
        <ele>1421</ele>
        <time>2023-02-11T08:52:13Z</time>
      </trkpt>
      <trkpt lat="42.85903" lon="-0.39584">
        <ele>1435.6</ele>
        <time>2023-02-11T08:52:27Z</time>
      </trkpt>
      <trkpt lat="42.85886" lon="-0.39596">
        <ele>1437</ele>
        <time>2023-02-11T08:52:51Z</time>
      </trkpt>
      <trkpt lat="42.85873" lon="-0.39614">
        <ele>1452.47</ele>
        <time>2023-02-11T08:53:43Z</time>
      </trkpt>
      <trkpt lat="42.85856" lon="-0.39625">
        <ele>1449.14</ele>
        <time>2023-02-11T08:53:56Z</time>
      </trkpt>
      <trkpt lat="42.85839" lon="-0.39635">
        <ele>1449</ele>
        <time>2023-02-11T08:54:53Z</time>
      </trkpt>
      <trkpt lat="42.85853" lon="-0.39652">
        <ele>1464</ele>
        <time>2023-02-11T08:57:06Z</time>
      </trkpt>
      <trkpt lat="42.8584" lon="-0.39671">
        <ele>1477.62</ele>
        <time>2023-02-11T08:57:17Z</time>
      </trkpt>
      <trkpt lat="42.85827" lon="-0.3969">
        <ele>1474.01</ele>
        <time>2023-02-11T08:57:33Z</time>
      </trkpt>
      <trkpt lat="42.85846" lon="-0.3969">
        <ele>1478</ele>
        <time>2023-02-11T08:59:10Z</time>
      </trkpt>
      <trkpt lat="42.85847" lon="-0.39715">
        <ele>1494</ele>
        <time>2023-02-11T09:00:08Z</time>
      </trkpt>
      <trkpt lat="42.85833" lon="-0.39732">
        <ele>1505.1</ele>
        <time>2023-02-11T09:00:21Z</time>
      </trkpt>
      <trkpt lat="42.85815" lon="-0.3974">
        <ele>1503</ele>
        <time>2023-02-11T09:01:15Z</time>
      </trkpt>
      <trkpt lat="42.85799" lon="-0.3975">
        <ele>1513</ele>
        <time>2023-02-11T09:01:39Z</time>
      </trkpt>
      <trkpt lat="42.85782" lon="-0.39759">
        <ele>1513</ele>
        <time>2023-02-11T09:02:03Z</time>
      </trkpt>
      <trkpt lat="42.85764" lon="-0.39761">
        <ele>1508</ele>
        <time>2023-02-11T09:02:41Z</time>
      </trkpt>
      <trkpt lat="42.85759" lon="-0.39785">
        <ele>1517.98</ele>
        <time>2023-02-11T09:04:13Z</time>
      </trkpt>
      <trkpt lat="42.85752" lon="-0.39807">
        <ele>1528.01</ele>
        <time>2023-02-11T09:04:32Z</time>
      </trkpt>
      <trkpt lat="42.85746" lon="-0.39831">
        <ele>1511.49</ele>
        <time>2023-02-11T09:05:00Z</time>
      </trkpt>
      <trkpt lat="42.85728" lon="-0.39834">
        <ele>1520</ele>
        <time>2023-02-11T09:05:40Z</time>
      </trkpt>
      <trkpt lat="42.85709" lon="-0.39832">
        <ele>1512.19</ele>
        <time>2023-02-11T09:06:05Z</time>
      </trkpt>
      <trkpt lat="42.8569" lon="-0.39828">
        <ele>1530.85</ele>
        <time>2023-02-11T09:06:30Z</time>
      </trkpt>
      <trkpt lat="42.85692" lon="-0.39853">
        <ele>1537</ele>
        <time>2023-02-11T09:07:50Z</time>
      </trkpt>
      <trkpt lat="42.85701" lon="-0.39874">
        <ele>1528</ele>
        <time>2023-02-11T09:08:57Z</time>
      </trkpt>
      <trkpt lat="42.85713" lon="-0.39894">
        <ele>1538.99</ele>
        <time>2023-02-11T09:09:33Z</time>
      </trkpt>
      <trkpt lat="42.85721" lon="-0.39917">
        <ele>1539</ele>
        <time>2023-02-11T09:09:59Z</time>
      </trkpt>
      <trkpt lat="42.85728" lon="-0.3994">
        <ele>1547</ele>
        <time>2023-02-11T09:10:34Z</time>
      </trkpt>
      <trkpt lat="42.85735" lon="-0.39963">
        <ele>1556</ele>
        <time>2023-02-11T09:11:28Z</time>
      </trkpt>
      <trkpt lat="42.85732" lon="-0.39987">
        <ele>1565</ele>
        <time>2023-02-11T09:12:18Z</time>
      </trkpt>
      <trkpt lat="42.85714" lon="-0.3998">
        <ele>1565</ele>
        <time>2023-02-11T09:12:38Z</time>
      </trkpt>
      <trkpt lat="42.85712" lon="-0.40005">
        <ele>1573</ele>
        <time>2023-02-11T09:14:06Z</time>
      </trkpt>
      <trkpt lat="42.85707" lon="-0.40029">
        <ele>1580.28</ele>
        <time>2023-02-11T09:15:17Z</time>
      </trkpt>
      <trkpt lat="42.85712" lon="-0.40053">
        <ele>1581</ele>
        <time>2023-02-11T09:15:49Z</time>
      </trkpt>
      <trkpt lat="42.85715" lon="-0.40077">
        <ele>1589</ele>
        <time>2023-02-11T09:16:21Z</time>
      </trkpt>
      <trkpt lat="42.85719" lon="-0.40102">
        <ele>1596</ele>
        <time>2023-02-11T09:17:23Z</time>
      </trkpt>
      <trkpt lat="42.85706" lon="-0.4012">
        <ele>1603</ele>
        <time>2023-02-11T09:18:39Z</time>
      </trkpt>
      <trkpt lat="42.85697" lon="-0.40142">
        <ele>1609.94</ele>
        <time>2023-02-11T09:19:21Z</time>
      </trkpt>
      <trkpt lat="42.85683" lon="-0.40157">
        <ele>1621</ele>
        <time>2023-02-11T09:20:01Z</time>
      </trkpt>
      <trkpt lat="42.85673" lon="-0.40178">
        <ele>1629</ele>
        <time>2023-02-11T09:20:41Z</time>
      </trkpt>
      <trkpt lat="42.8568" lon="-0.40201">
        <ele>1636.99</ele>
        <time>2023-02-11T09:24:56Z</time>
      </trkpt>
      <trkpt lat="42.85694" lon="-0.40216">
        <ele>1637</ele>
        <time>2023-02-11T09:25:22Z</time>
      </trkpt>
      <trkpt lat="42.8569" lon="-0.4024">
        <ele>1647</ele>
        <time>2023-02-11T09:26:01Z</time>
      </trkpt>
      <trkpt lat="42.85675" lon="-0.40254">
        <ele>1656</ele>
        <time>2023-02-11T09:26:28Z</time>
      </trkpt>
      <trkpt lat="42.85678" lon="-0.40279">
        <ele>1661.84</ele>
        <time>2023-02-11T09:27:37Z</time>
      </trkpt>
      <trkpt lat="42.85682" lon="-0.40303">
        <ele>1662</ele>
        <time>2023-02-11T09:28:07Z</time>
      </trkpt>
      <trkpt lat="42.85685" lon="-0.40328">
        <ele>1666</ele>
        <time>2023-02-11T09:28:38Z</time>
      </trkpt>
      <trkpt lat="42.85684" lon="-0.40353">
        <ele>1669</ele>
        <time>2023-02-11T09:29:05Z</time>
      </trkpt>
      <trkpt lat="42.8568" lon="-0.40377">
        <ele>1671</ele>
        <time>2023-02-11T09:29:36Z</time>
      </trkpt>
      <trkpt lat="42.85667" lon="-0.40394">
        <ele>1673</ele>
        <time>2023-02-11T09:30:02Z</time>
      </trkpt>
      <trkpt lat="42.85662" lon="-0.40417">
        <ele>1685.9</ele>
        <time>2023-02-11T09:30:36Z</time>
      </trkpt>
      <trkpt lat="42.85655" lon="-0.40441">
        <ele>1685</ele>
        <time>2023-02-11T09:31:11Z</time>
      </trkpt>
      <trkpt lat="42.85647" lon="-0.40463">
        <ele>1686</ele>
        <time>2023-02-11T09:31:44Z</time>
      </trkpt>
      <trkpt lat="42.85636" lon="-0.40483">
        <ele>1698</ele>
        <time>2023-02-11T09:32:13Z</time>
      </trkpt>
      <trkpt lat="42.85624" lon="-0.40502">
        <ele>1700</ele>
        <time>2023-02-11T09:32:50Z</time>
      </trkpt>
      <trkpt lat="42.85612" lon="-0.40521">
        <ele>1700</ele>
        <time>2023-02-11T09:33:26Z</time>
      </trkpt>
      <trkpt lat="42.85594" lon="-0.40526">
        <ele>1704</ele>
        <time>2023-02-11T09:33:57Z</time>
      </trkpt>
      <trkpt lat="42.85576" lon="-0.40531">
        <ele>1712</ele>
        <time>2023-02-11T09:34:29Z</time>
      </trkpt>
      <trkpt lat="42.85563" lon="-0.40548">
        <ele>1712</ele>
        <time>2023-02-11T09:35:10Z</time>
      </trkpt>
      <trkpt lat="42.85548" lon="-0.40563">
        <ele>1720</ele>
        <time>2023-02-11T09:35:39Z</time>
      </trkpt>
      <trkpt lat="42.85533" lon="-0.40576">
        <ele>1720</ele>
        <time>2023-02-11T09:36:07Z</time>
      </trkpt>
      <trkpt lat="42.85517" lon="-0.40589">
        <ele>1726</ele>
        <time>2023-02-11T09:36:47Z</time>
      </trkpt>
      <trkpt lat="42.85502" lon="-0.40603">
        <ele>1726</ele>
        <time>2023-02-11T09:37:17Z</time>
      </trkpt>
      <trkpt lat="42.85484" lon="-0.406">
        <ele>1736</ele>
        <time>2023-02-11T09:38:00Z</time>
      </trkpt>
      <trkpt lat="42.85471" lon="-0.40618">
        <ele>1743.1</ele>
        <time>2023-02-11T09:38:27Z</time>
      </trkpt>
      <trkpt lat="42.85456" lon="-0.40633">
        <ele>1744</ele>
        <time>2023-02-11T09:38:46Z</time>
      </trkpt>
      <trkpt lat="42.85442" lon="-0.4065">
        <ele>1753.91</ele>
        <time>2023-02-11T09:39:16Z</time>
      </trkpt>
      <trkpt lat="42.85433" lon="-0.40671">
        <ele>1756</ele>
        <time>2023-02-11T09:39:48Z</time>
      </trkpt>
      <trkpt lat="42.85431" lon="-0.40696">
        <ele>1759.64</ele>
        <time>2023-02-11T09:40:14Z</time>
      </trkpt>
      <trkpt lat="42.85422" lon="-0.40718">
        <ele>1760</ele>
        <time>2023-02-11T09:40:47Z</time>
      </trkpt>
      <trkpt lat="42.85406" lon="-0.4073">
        <ele>1772</ele>
        <time>2023-02-11T09:41:21Z</time>
      </trkpt>
      <trkpt lat="42.85391" lon="-0.40744">
        <ele>1772</ele>
        <time>2023-02-11T09:41:48Z</time>
      </trkpt>
      <trkpt lat="42.85376" lon="-0.4076">
        <ele>1779</ele>
        <time>2023-02-11T09:42:16Z</time>
      </trkpt>
      <trkpt lat="42.85363" lon="-0.40777">
        <ele>1779</ele>
        <time>2023-02-11T09:42:45Z</time>
      </trkpt>
      <trkpt lat="42.85352" lon="-0.40797">
        <ele>1782</ele>
        <time>2023-02-11T09:43:10Z</time>
      </trkpt>
      <trkpt lat="42.85341" lon="-0.40817">
        <ele>1784</ele>
        <time>2023-02-11T09:43:34Z</time>
      </trkpt>
      <trkpt lat="42.85335" lon="-0.40841">
        <ele>1786</ele>
        <time>2023-02-11T09:44:00Z</time>
      </trkpt>
      <trkpt lat="42.85333" lon="-0.40866">
        <ele>1793.96</ele>
        <time>2023-02-11T09:44:26Z</time>
      </trkpt>
      <trkpt lat="42.85331" lon="-0.40891">
        <ele>1797.64</ele>
        <time>2023-02-11T09:44:54Z</time>
      </trkpt>
      <trkpt lat="42.85329" lon="-0.40916">
        <ele>1798</ele>
        <time>2023-02-11T09:45:25Z</time>
      </trkpt>
      <trkpt lat="42.85329" lon="-0.40941">
        <ele>1804</ele>
        <time>2023-02-11T09:45:57Z</time>
      </trkpt>
      <trkpt lat="42.85338" lon="-0.40963">
        <ele>1809</ele>
        <time>2023-02-11T09:46:22Z</time>
      </trkpt>
      <trkpt lat="42.85351" lon="-0.40981">
        <ele>1815</ele>
        <time>2023-02-11T09:46:50Z</time>
      </trkpt>
      <trkpt lat="42.85357" lon="-0.41005">
        <ele>1822</ele>
        <time>2023-02-11T09:47:55Z</time>
      </trkpt>
      <trkpt lat="42.85354" lon="-0.41029">
        <ele>1830.76</ele>
        <time>2023-02-11T09:48:42Z</time>
      </trkpt>
      <trkpt lat="42.8534" lon="-0.41045">
        <ele>1831</ele>
        <time>2023-02-11T10:00:27Z</time>
      </trkpt>
      <trkpt lat="42.85323" lon="-0.41055">
        <ele>1834</ele>
        <time>2023-02-11T10:00:59Z</time>
      </trkpt>
      <trkpt lat="42.85317" lon="-0.41079">
        <ele>1841</ele>
        <time>2023-02-11T10:01:42Z</time>
      </trkpt>
      <trkpt lat="42.85321" lon="-0.41104">
        <ele>1848</ele>
        <time>2023-02-11T10:02:12Z</time>
      </trkpt>
      <trkpt lat="42.85322" lon="-0.41128">
        <ele>1852</ele>
        <time>2023-02-11T10:03:02Z</time>
      </trkpt>
      <trkpt lat="42.85319" lon="-0.41153">
        <ele>1852</ele>
        <time>2023-02-11T10:03:41Z</time>
      </trkpt>
      <trkpt lat="42.85302" lon="-0.41165">
        <ele>1863</ele>
        <time>2023-02-11T10:05:38Z</time>
      </trkpt>
      <trkpt lat="42.85287" lon="-0.4118">
        <ele>1866</ele>
        <time>2023-02-11T10:06:05Z</time>
      </trkpt>
      <trkpt lat="42.85294" lon="-0.41204">
        <ele>1870</ele>
        <time>2023-02-11T10:06:43Z</time>
      </trkpt>
      <trkpt lat="42.85297" lon="-0.41228">
        <ele>1877</ele>
        <time>2023-02-11T10:07:32Z</time>
      </trkpt>
      <trkpt lat="42.85286" lon="-0.41248">
        <ele>1877</ele>
        <time>2023-02-11T10:08:48Z</time>
      </trkpt>
      <trkpt lat="42.85268" lon="-0.41245">
        <ele>1890</ele>
        <time>2023-02-11T10:09:42Z</time>
      </trkpt>
      <trkpt lat="42.85251" lon="-0.41235">
        <ele>1890</ele>
        <time>2023-02-11T10:10:16Z</time>
      </trkpt>
      <trkpt lat="42.85235" lon="-0.41247">
        <ele>1903</ele>
        <time>2023-02-11T10:11:06Z</time>
      </trkpt>
      <trkpt lat="42.85224" lon="-0.41267">
        <ele>1908</ele>
        <time>2023-02-11T10:11:29Z</time>
      </trkpt>
      <trkpt lat="42.85221" lon="-0.41293">
        <ele>1914</ele>
        <time>2023-02-11T10:11:48Z</time>
      </trkpt>
      <trkpt lat="42.85215" lon="-0.41316">
        <ele>1919</ele>
        <time>2023-02-11T10:12:13Z</time>
      </trkpt>
      <trkpt lat="42.85206" lon="-0.41339">
        <ele>1928</ele>
        <time>2023-02-11T10:12:47Z</time>
      </trkpt>
      <trkpt lat="42.85197" lon="-0.4136">
        <ele>1928</ele>
        <time>2023-02-11T10:13:13Z</time>
      </trkpt>
      <trkpt lat="42.85186" lon="-0.41379">
        <ele>1931</ele>
        <time>2023-02-11T10:13:47Z</time>
      </trkpt>
      <trkpt lat="42.85167" lon="-0.41381">
        <ele>1931</ele>
        <time>2023-02-11T10:17:18Z</time>
      </trkpt>
      <trkpt lat="42.85152" lon="-0.41366">
        <ele>1930</ele>
        <time>2023-02-11T10:17:29Z</time>
      </trkpt>
      <trkpt lat="42.85135" lon="-0.41358">
        <ele>1928.92</ele>
        <time>2023-02-11T10:17:41Z</time>
      </trkpt>
      <trkpt lat="42.85119" lon="-0.41345">
        <ele>1929</ele>
        <time>2023-02-11T10:18:06Z</time>
      </trkpt>
      <trkpt lat="42.85104" lon="-0.41331">
        <ele>1931</ele>
        <time>2023-02-11T10:18:32Z</time>
      </trkpt>
      <trkpt lat="42.85106" lon="-0.41306">
        <ele>1931</ele>
        <time>2023-02-11T10:19:03Z</time>
      </trkpt>
      <trkpt lat="42.85093" lon="-0.41288">
        <ele>1932</ele>
        <time>2023-02-11T10:19:50Z</time>
      </trkpt>
      <trkpt lat="42.85077" lon="-0.41278">
        <ele>1940</ele>
        <time>2023-02-11T10:21:17Z</time>
      </trkpt>
      <trkpt lat="42.85064" lon="-0.4126">
        <ele>1944</ele>
        <time>2023-02-11T10:21:51Z</time>
      </trkpt>
      <trkpt lat="42.85046" lon="-0.41261">
        <ele>1954</ele>
        <time>2023-02-11T10:22:18Z</time>
      </trkpt>
      <trkpt lat="42.85028" lon="-0.41256">
        <ele>1954</ele>
        <time>2023-02-11T10:22:41Z</time>
      </trkpt>
      <trkpt lat="42.85011" lon="-0.41246">
        <ele>1958</ele>
        <time>2023-02-11T10:23:16Z</time>
      </trkpt>
      <trkpt lat="42.84997" lon="-0.41232">
        <ele>1966</ele>
        <time>2023-02-11T10:24:00Z</time>
      </trkpt>
      <trkpt lat="42.84979" lon="-0.41229">
        <ele>1966</ele>
        <time>2023-02-11T10:25:03Z</time>
      </trkpt>
      <trkpt lat="42.8496" lon="-0.41226">
        <ele>1978</ele>
        <time>2023-02-11T10:26:00Z</time>
      </trkpt>
      <trkpt lat="42.84946" lon="-0.41241">
        <ele>1978</ele>
        <time>2023-02-11T10:26:46Z</time>
      </trkpt>
      <trkpt lat="42.84927" lon="-0.41242">
        <ele>1990</ele>
        <time>2023-02-11T10:27:21Z</time>
      </trkpt>
      <trkpt lat="42.84909" lon="-0.4124">
        <ele>1998</ele>
        <time>2023-02-11T10:27:46Z</time>
      </trkpt>
      <trkpt lat="42.8489" lon="-0.41238">
        <ele>1998</ele>
        <time>2023-02-11T10:28:20Z</time>
      </trkpt>
      <trkpt lat="42.84872" lon="-0.41239">
        <ele>2004</ele>
        <time>2023-02-11T10:28:48Z</time>
      </trkpt>
      <trkpt lat="42.84855" lon="-0.41248">
        <ele>2006</ele>
        <time>2023-02-11T10:29:17Z</time>
      </trkpt>
      <trkpt lat="42.84837" lon="-0.41246">
        <ele>2006</ele>
        <time>2023-02-11T10:29:42Z</time>
      </trkpt>
      <trkpt lat="42.84836" lon="-0.41221">
        <ele>2002.11</ele>
        <time>2023-02-11T10:30:21Z</time>
      </trkpt>
      <trkpt lat="42.84821" lon="-0.41205">
        <ele>2011</ele>
        <time>2023-02-11T10:32:10Z</time>
      </trkpt>
      <trkpt lat="42.84812" lon="-0.41184">
        <ele>2012</ele>
        <time>2023-02-11T10:33:07Z</time>
      </trkpt>
      <trkpt lat="42.84804" lon="-0.4116">
        <ele>2017.79</ele>
        <time>2023-02-11T10:33:29Z</time>
      </trkpt>
      <trkpt lat="42.84797" lon="-0.41137">
        <ele>2016.18</ele>
        <time>2023-02-11T10:33:52Z</time>
      </trkpt>
      <trkpt lat="42.84797" lon="-0.41113">
        <ele>2016</ele>
        <time>2023-02-11T10:34:18Z</time>
      </trkpt>
      <trkpt lat="42.84792" lon="-0.41088">
        <ele>2018</ele>
        <time>2023-02-11T10:34:50Z</time>
      </trkpt>
      <trkpt lat="42.84788" lon="-0.41064">
        <ele>2021</ele>
        <time>2023-02-11T10:35:20Z</time>
      </trkpt>
      <trkpt lat="42.84781" lon="-0.41041">
        <ele>2024</ele>
        <time>2023-02-11T10:35:54Z</time>
      </trkpt>
      <trkpt lat="42.8477" lon="-0.41021">
        <ele>2039</ele>
        <time>2023-02-11T10:36:42Z</time>
      </trkpt>
      <trkpt lat="42.84753" lon="-0.41012">
        <ele>2039</ele>
        <time>2023-02-11T10:37:37Z</time>
      </trkpt>
      <trkpt lat="42.84749" lon="-0.40987">
        <ele>2051</ele>
        <time>2023-02-11T10:38:11Z</time>
      </trkpt>
      <trkpt lat="42.84736" lon="-0.4097">
        <ele>2059</ele>
        <time>2023-02-11T10:39:36Z</time>
      </trkpt>
      <trkpt lat="42.84731" lon="-0.40946">
        <ele>2059</ele>
        <time>2023-02-11T10:40:29Z</time>
      </trkpt>
      <trkpt lat="42.84726" lon="-0.40922">
        <ele>2070</ele>
        <time>2023-02-11T10:42:50Z</time>
      </trkpt>
      <trkpt lat="42.8471" lon="-0.40931">
        <ele>2075</ele>
        <time>2023-02-11T10:43:58Z</time>
      </trkpt>
      <trkpt lat="42.84696" lon="-0.40948">
        <ele>2067</ele>
        <time>2023-02-11T10:45:00Z</time>
      </trkpt>
      <trkpt lat="42.84678" lon="-0.40951">
        <ele>2084</ele>
        <time>2023-02-11T10:46:35Z</time>
      </trkpt>
      <trkpt lat="42.84664" lon="-0.40935">
        <ele>2105.97</ele>
        <time>2023-02-11T10:47:46Z</time>
      </trkpt>
      <trkpt lat="42.84648" lon="-0.40948">
        <ele>2102</ele>
        <time>2023-02-11T10:48:22Z</time>
      </trkpt>
      <trkpt lat="42.84635" lon="-0.40965">
        <ele>2113</ele>
        <time>2023-02-11T10:50:01Z</time>
      </trkpt>
      <trkpt lat="42.84627" lon="-0.40987">
        <ele>2115</ele>
        <time>2023-02-11T10:50:40Z</time>
      </trkpt>
      <trkpt lat="42.84612" lon="-0.41001">
        <ele>2113.05</ele>
        <time>2023-02-11T10:51:12Z</time>
      </trkpt>
      <trkpt lat="42.84605" lon="-0.41024">
        <ele>2130</ele>
        <time>2023-02-11T10:52:36Z</time>
      </trkpt>
      <trkpt lat="42.84591" lon="-0.4104">
        <ele>2130</ele>
        <time>2023-02-11T10:53:17Z</time>
      </trkpt>
      <trkpt lat="42.84581" lon="-0.4106">
        <ele>2146</ele>
        <time>2023-02-11T10:53:50Z</time>
      </trkpt>
      <trkpt lat="42.84566" lon="-0.41074">
        <ele>2146</ele>
        <time>2023-02-11T10:54:38Z</time>
      </trkpt>
      <trkpt lat="42.8455" lon="-0.41086">
        <ele>2158</ele>
        <time>2023-02-11T10:55:34Z</time>
      </trkpt>
      <trkpt lat="42.84539" lon="-0.41106">
        <ele>2158</ele>
        <time>2023-02-11T10:58:56Z</time>
      </trkpt>
      <trkpt lat="42.84525" lon="-0.41122">
        <ele>2166.99</ele>
        <time>2023-02-11T10:59:27Z</time>
      </trkpt>
      <trkpt lat="42.84508" lon="-0.41132">
        <ele>2167</ele>
        <time>2023-02-11T11:00:03Z</time>
      </trkpt>
      <trkpt lat="42.84492" lon="-0.41143">
        <ele>2175</ele>
        <time>2023-02-11T11:00:51Z</time>
      </trkpt>
      <trkpt lat="42.84475" lon="-0.41153">
        <ele>2175</ele>
        <time>2023-02-11T11:01:35Z</time>
      </trkpt>
      <trkpt lat="42.8446" lon="-0.41165">
        <ele>2185</ele>
        <time>2023-02-11T11:02:02Z</time>
      </trkpt>
      <trkpt lat="42.84444" lon="-0.41178">
        <ele>2188.92</ele>
        <time>2023-02-11T11:02:36Z</time>
      </trkpt>
      <trkpt lat="42.84426" lon="-0.41186">
        <ele>2190</ele>
        <time>2023-02-11T11:03:05Z</time>
      </trkpt>
      <trkpt lat="42.84409" lon="-0.41178">
        <ele>2194</ele>
        <time>2023-02-11T11:13:38Z</time>
      </trkpt>
      <trkpt lat="42.84424" lon="-0.41163">
        <ele>2190</ele>
        <time>2023-02-11T11:23:40Z</time>
      </trkpt>
      <trkpt lat="42.84421" lon="-0.41137">
        <ele>2183</ele>
        <time>2023-02-11T11:25:00Z</time>
      </trkpt>
      <trkpt lat="42.84402" lon="-0.41134">
        <ele>2178</ele>
        <time>2023-02-11T11:25:32Z</time>
      </trkpt>
      <trkpt lat="42.84387" lon="-0.4112">
        <ele>2171.7</ele>
        <time>2023-02-11T11:25:38Z</time>
      </trkpt>
      <trkpt lat="42.84403" lon="-0.41106">
        <ele>2161</ele>
        <time>2023-02-11T11:26:53Z</time>
      </trkpt>
      <trkpt lat="42.84422" lon="-0.41098">
        <ele>2161</ele>
        <time>2023-02-11T11:26:59Z</time>
      </trkpt>
      <trkpt lat="42.84441" lon="-0.41089">
        <ele>2161</ele>
        <time>2023-02-11T11:27:05Z</time>
      </trkpt>
      <trkpt lat="42.84435" lon="-0.41061">
        <ele>2146.04</ele>
        <time>2023-02-11T11:27:23Z</time>
      </trkpt>
      <trkpt lat="42.84432" lon="-0.41037">
        <ele>2129.04</ele>
        <time>2023-02-11T11:27:28Z</time>
      </trkpt>
      <trkpt lat="42.84438" lon="-0.41008">
        <ele>2114.12</ele>
        <time>2023-02-11T11:29:03Z</time>
      </trkpt>
      <trkpt lat="42.84432" lon="-0.40984">
        <ele>2101.11</ele>
        <time>2023-02-11T11:29:09Z</time>
      </trkpt>
      <trkpt lat="42.84426" lon="-0.40958">
        <ele>2089.32</ele>
        <time>2023-02-11T11:29:14Z</time>
      </trkpt>
      <trkpt lat="42.84418" lon="-0.40932">
        <ele>2073.43</ele>
        <time>2023-02-11T11:29:20Z</time>
      </trkpt>
      <trkpt lat="42.84403" lon="-0.40917">
        <ele>2058.2</ele>
        <time>2023-02-11T11:29:48Z</time>
      </trkpt>
      <trkpt lat="42.84409" lon="-0.4089">
        <ele>2054</ele>
        <time>2023-02-11T11:30:15Z</time>
      </trkpt>
      <trkpt lat="42.84405" lon="-0.40864">
        <ele>2039.04</ele>
        <time>2023-02-11T11:30:20Z</time>
      </trkpt>
      <trkpt lat="42.84406" lon="-0.40836">
        <ele>2029.02</ele>
        <time>2023-02-11T11:30:25Z</time>
      </trkpt>
      <trkpt lat="42.84398" lon="-0.4081">
        <ele>2018.03</ele>
        <time>2023-02-11T11:30:30Z</time>
      </trkpt>
      <trkpt lat="42.84383" lon="-0.40792">
        <ele>2007.03</ele>
        <time>2023-02-11T11:31:51Z</time>
      </trkpt>
      <trkpt lat="42.84361" lon="-0.40796">
        <ele>2007</ele>
        <time>2023-02-11T11:31:55Z</time>
      </trkpt>
      <trkpt lat="42.84343" lon="-0.40796">
        <ele>2001.05</ele>
        <time>2023-02-11T11:31:59Z</time>
      </trkpt>
      <trkpt lat="42.84331" lon="-0.4077">
        <ele>1989.81</ele>
        <time>2023-02-11T11:32:07Z</time>
      </trkpt>
      <trkpt lat="42.84333" lon="-0.40742">
        <ele>1983.54</ele>
        <time>2023-02-11T11:32:12Z</time>
      </trkpt>
      <trkpt lat="42.84334" lon="-0.40714">
        <ele>1976.35</ele>
        <time>2023-02-11T11:32:16Z</time>
      </trkpt>
      <trkpt lat="42.84357" lon="-0.40707">
        <ele>1975.01</ele>
        <time>2023-02-11T11:32:20Z</time>
      </trkpt>
      <trkpt lat="42.84374" lon="-0.40699">
        <ele>1977.98</ele>
        <time>2023-02-11T11:32:24Z</time>
      </trkpt>
      <trkpt lat="42.84357" lon="-0.40708">
        <ele>1975.27</ele>
        <time>2023-02-11T12:05:58Z</time>
      </trkpt>
      <trkpt lat="42.84346" lon="-0.40687">
        <ele>1968</ele>
        <time>2023-02-11T12:06:16Z</time>
      </trkpt>
      <trkpt lat="42.84355" lon="-0.40664">
        <ele>1960.72</ele>
        <time>2023-02-11T12:06:25Z</time>
      </trkpt>
      <trkpt lat="42.84367" lon="-0.40641">
        <ele>1959.03</ele>
        <time>2023-02-11T12:06:33Z</time>
      </trkpt>
      <trkpt lat="42.84383" lon="-0.4063">
        <ele>1946</ele>
        <time>2023-02-11T12:06:40Z</time>
      </trkpt>
      <trkpt lat="42.84394" lon="-0.40603">
        <ele>1930.53</ele>
        <time>2023-02-11T12:06:55Z</time>
      </trkpt>
      <trkpt lat="42.8439" lon="-0.40576">
        <ele>1919.1</ele>
        <time>2023-02-11T12:08:23Z</time>
      </trkpt>
      <trkpt lat="42.84397" lon="-0.40552">
        <ele>1911.01</ele>
        <time>2023-02-11T12:08:27Z</time>
      </trkpt>
      <trkpt lat="42.84405" lon="-0.40528">
        <ele>1908.02</ele>
        <time>2023-02-11T12:08:31Z</time>
      </trkpt>
      <trkpt lat="42.84414" lon="-0.40506">
        <ele>1901.19</ele>
        <time>2023-02-11T12:08:34Z</time>
      </trkpt>
      <trkpt lat="42.84415" lon="-0.40481">
        <ele>1895.05</ele>
        <time>2023-02-11T12:08:38Z</time>
      </trkpt>
      <trkpt lat="42.84402" lon="-0.40464">
        <ele>1889</ele>
        <time>2023-02-11T12:09:26Z</time>
      </trkpt>
      <trkpt lat="42.84384" lon="-0.40457">
        <ele>1889</ele>
        <time>2023-02-11T12:09:39Z</time>
      </trkpt>
      <trkpt lat="42.84363" lon="-0.40457">
        <ele>1889</ele>
        <time>2023-02-11T12:09:42Z</time>
      </trkpt>
      <trkpt lat="42.84372" lon="-0.40432">
        <ele>1878.99</ele>
        <time>2023-02-11T12:11:50Z</time>
      </trkpt>
      <trkpt lat="42.84374" lon="-0.40406">
        <ele>1866.18</ele>
        <time>2023-02-11T12:11:54Z</time>
      </trkpt>
      <trkpt lat="42.84381" lon="-0.40377">
        <ele>1856.82</ele>
        <time>2023-02-11T12:11:58Z</time>
      </trkpt>
      <trkpt lat="42.84396" lon="-0.40362">
        <ele>1858</ele>
        <time>2023-02-11T12:12:15Z</time>
      </trkpt>
      <trkpt lat="42.84411" lon="-0.40343">
        <ele>1848.08</ele>
        <time>2023-02-11T12:12:19Z</time>
      </trkpt>
      <trkpt lat="42.84422" lon="-0.40323">
        <ele>1854.81</ele>
        <time>2023-02-11T12:12:23Z</time>
      </trkpt>
      <trkpt lat="42.84426" lon="-0.40298">
        <ele>1850.45</ele>
        <time>2023-02-11T12:15:14Z</time>
      </trkpt>
      <trkpt lat="42.84422" lon="-0.4027">
        <ele>1842.72</ele>
        <time>2023-02-11T12:15:18Z</time>
      </trkpt>
      <trkpt lat="42.84416" lon="-0.40242">
        <ele>1831.01</ele>
        <time>2023-02-11T12:15:26Z</time>
      </trkpt>
      <trkpt lat="42.84428" lon="-0.40223">
        <ele>1830</ele>
        <time>2023-02-11T12:17:07Z</time>
      </trkpt>
      <trkpt lat="42.84426" lon="-0.40198">
        <ele>1823.08</ele>
        <time>2023-02-11T12:17:14Z</time>
      </trkpt>
      <trkpt lat="42.8442" lon="-0.40174">
        <ele>1816.02</ele>
        <time>2023-02-11T12:17:19Z</time>
      </trkpt>
      <trkpt lat="42.84421" lon="-0.40149">
        <ele>1811.01</ele>
        <time>2023-02-11T12:17:25Z</time>
      </trkpt>
      <trkpt lat="42.84423" lon="-0.40123">
        <ele>1804</ele>
        <time>2023-02-11T12:17:56Z</time>
      </trkpt>
      <trkpt lat="42.8442" lon="-0.40098">
        <ele>1794.93</ele>
        <time>2023-02-11T12:18:01Z</time>
      </trkpt>
      <trkpt lat="42.84418" lon="-0.40073">
        <ele>1788.54</ele>
        <time>2023-02-11T12:18:06Z</time>
      </trkpt>
      <trkpt lat="42.84411" lon="-0.40049">
        <ele>1777.96</ele>
        <time>2023-02-11T12:18:11Z</time>
      </trkpt>
      <trkpt lat="42.844" lon="-0.40027">
        <ele>1773.5</ele>
        <time>2023-02-11T12:18:22Z</time>
      </trkpt>
      <trkpt lat="42.84411" lon="-0.40001">
        <ele>1772</ele>
        <time>2023-02-11T12:19:38Z</time>
      </trkpt>
      <trkpt lat="42.84427" lon="-0.39985">
        <ele>1767.97</ele>
        <time>2023-02-11T12:19:47Z</time>
      </trkpt>
      <trkpt lat="42.84445" lon="-0.39971">
        <ele>1769.4</ele>
        <time>2023-02-11T12:19:52Z</time>
      </trkpt>
      <trkpt lat="42.8443" lon="-0.39957">
        <ele>1759.01</ele>
        <time>2023-02-11T12:19:58Z</time>
      </trkpt>
      <trkpt lat="42.8442" lon="-0.39934">
        <ele>1750.81</ele>
        <time>2023-02-11T12:20:07Z</time>
      </trkpt>
      <trkpt lat="42.84405" lon="-0.39918">
        <ele>1744.17</ele>
        <time>2023-02-11T12:20:11Z</time>
      </trkpt>
      <trkpt lat="42.84389" lon="-0.39899">
        <ele>1732.83</ele>
        <time>2023-02-11T12:20:17Z</time>
      </trkpt>
      <trkpt lat="42.84373" lon="-0.39916">
        <ele>1730</ele>
        <time>2023-02-11T12:21:35Z</time>
      </trkpt>
      <trkpt lat="42.84356" lon="-0.39903">
        <ele>1719.1</ele>
        <time>2023-02-11T12:21:43Z</time>
      </trkpt>
      <trkpt lat="42.84348" lon="-0.39877">
        <ele>1718</ele>
        <time>2023-02-11T12:21:50Z</time>
      </trkpt>
      <trkpt lat="42.8433" lon="-0.39866">
        <ele>1705.4</ele>
        <time>2023-02-11T12:21:55Z</time>
      </trkpt>
      <trkpt lat="42.84312" lon="-0.39874">
        <ele>1700</ele>
        <time>2023-02-11T12:23:18Z</time>
      </trkpt>
      <trkpt lat="42.84299" lon="-0.3989">
        <ele>1695</ele>
        <time>2023-02-11T12:27:32Z</time>
      </trkpt>
      <trkpt lat="42.84288" lon="-0.3991">
        <ele>1695</ele>
        <time>2023-02-11T12:28:15Z</time>
      </trkpt>
      <trkpt lat="42.84281" lon="-0.39933">
        <ele>1703</ele>
        <time>2023-02-11T12:28:51Z</time>
      </trkpt>
      <trkpt lat="42.84273" lon="-0.39957">
        <ele>1695</ele>
        <time>2023-02-11T12:29:33Z</time>
      </trkpt>
      <trkpt lat="42.84257" lon="-0.3997">
        <ele>1695</ele>
        <time>2023-02-11T12:29:41Z</time>
      </trkpt>
      <trkpt lat="42.8424" lon="-0.39978">
        <ele>1705</ele>
        <time>2023-02-11T12:29:55Z</time>
      </trkpt>
      <trkpt lat="42.84225" lon="-0.39991">
        <ele>1705</ele>
        <time>2023-02-11T12:30:26Z</time>
      </trkpt>
      <trkpt lat="42.84212" lon="-0.40009">
        <ele>1708</ele>
        <time>2023-02-11T12:31:32Z</time>
      </trkpt>
      <trkpt lat="42.84196" lon="-0.40024">
        <ele>1708</ele>
        <time>2023-02-11T12:32:47Z</time>
      </trkpt>
      <trkpt lat="42.84185" lon="-0.40046">
        <ele>1691</ele>
        <time>2023-02-11T12:32:57Z</time>
      </trkpt>
      <trkpt lat="42.84172" lon="-0.40067">
        <ele>1701</ele>
        <time>2023-02-11T12:33:24Z</time>
      </trkpt>
      <trkpt lat="42.84152" lon="-0.4008">
        <ele>1680.57</ele>
        <time>2023-02-11T12:33:28Z</time>
      </trkpt>
      <trkpt lat="42.84133" lon="-0.40091">
        <ele>1676.8</ele>
        <time>2023-02-11T12:33:31Z</time>
      </trkpt>
      <trkpt lat="42.84114" lon="-0.40103">
        <ele>1673.03</ele>
        <time>2023-02-11T12:33:35Z</time>
      </trkpt>
      <trkpt lat="42.84096" lon="-0.40115">
        <ele>1670.83</ele>
        <time>2023-02-11T12:33:39Z</time>
      </trkpt>
      <trkpt lat="42.84081" lon="-0.40131">
        <ele>1661.9</ele>
        <time>2023-02-11T12:33:45Z</time>
      </trkpt>
      <trkpt lat="42.84066" lon="-0.40146">
        <ele>1666.22</ele>
        <time>2023-02-11T12:33:49Z</time>
      </trkpt>
      <trkpt lat="42.8405" lon="-0.40161">
        <ele>1653.35</ele>
        <time>2023-02-11T12:33:54Z</time>
      </trkpt>
      <trkpt lat="42.84033" lon="-0.40171">
        <ele>1661.98</ele>
        <time>2023-02-11T12:34:01Z</time>
      </trkpt>
      <trkpt lat="42.84023" lon="-0.40147">
        <ele>1644.84</ele>
        <time>2023-02-11T12:34:36Z</time>
      </trkpt>
      <trkpt lat="42.84015" lon="-0.40123">
        <ele>1631.03</ele>
        <time>2023-02-11T12:34:42Z</time>
      </trkpt>
      <trkpt lat="42.84007" lon="-0.401">
        <ele>1621.01</ele>
        <time>2023-02-11T12:34:52Z</time>
      </trkpt>
      <trkpt lat="42.83994" lon="-0.40078">
        <ele>1613.22</ele>
        <time>2023-02-11T12:35:05Z</time>
      </trkpt>
      <trkpt lat="42.83974" lon="-0.40065">
        <ele>1613</ele>
        <time>2023-02-11T12:35:09Z</time>
      </trkpt>
      <trkpt lat="42.83987" lon="-0.40046">
        <ele>1608</ele>
        <time>2023-02-11T12:35:19Z</time>
      </trkpt>
      <trkpt lat="42.83994" lon="-0.40023">
        <ele>1605.27</ele>
        <time>2023-02-11T12:35:58Z</time>
      </trkpt>
      <trkpt lat="42.83987" lon="-0.39999">
        <ele>1601.5</ele>
        <time>2023-02-11T12:36:04Z</time>
      </trkpt>
      <trkpt lat="42.83978" lon="-0.39975">
        <ele>1600</ele>
        <time>2023-02-11T12:36:34Z</time>
      </trkpt>
      <trkpt lat="42.83971" lon="-0.39949">
        <ele>1612.29</ele>
        <time>2023-02-11T12:36:40Z</time>
      </trkpt>
      <trkpt lat="42.83965" lon="-0.39926">
        <ele>1602</ele>
        <time>2023-02-11T12:36:48Z</time>
      </trkpt>
      <trkpt lat="42.83958" lon="-0.39903">
        <ele>1591.99</ele>
        <time>2023-02-11T12:36:55Z</time>
      </trkpt>
      <trkpt lat="42.83947" lon="-0.39881">
        <ele>1585.55</ele>
        <time>2023-02-11T12:36:59Z</time>
      </trkpt>
      <trkpt lat="42.83936" lon="-0.39861">
        <ele>1586.1</ele>
        <time>2023-02-11T12:37:20Z</time>
      </trkpt>
      <trkpt lat="42.83942" lon="-0.39837">
        <ele>1584.01</ele>
        <time>2023-02-11T12:38:51Z</time>
      </trkpt>
      <trkpt lat="42.83946" lon="-0.3981">
        <ele>1574.55</ele>
        <time>2023-02-11T12:38:56Z</time>
      </trkpt>
      <trkpt lat="42.83948" lon="-0.39779">
        <ele>1570.04</ele>
        <time>2023-02-11T12:39:00Z</time>
      </trkpt>
      <trkpt lat="42.83956" lon="-0.39752">
        <ele>1568.01</ele>
        <time>2023-02-11T12:39:05Z</time>
      </trkpt>
      <trkpt lat="42.83961" lon="-0.39726">
        <ele>1567.01</ele>
        <time>2023-02-11T12:39:09Z</time>
      </trkpt>
      <trkpt lat="42.83969" lon="-0.39701">
        <ele>1565</ele>
        <time>2023-02-11T12:39:15Z</time>
      </trkpt>
      <trkpt lat="42.83974" lon="-0.39673">
        <ele>1557.64</ele>
        <time>2023-02-11T12:39:20Z</time>
      </trkpt>
      <trkpt lat="42.83974" lon="-0.39645">
        <ele>1555.01</ele>
        <time>2023-02-11T12:39:25Z</time>
      </trkpt>
      <trkpt lat="42.83969" lon="-0.39621">
        <ele>1558.62</ele>
        <time>2023-02-11T12:39:30Z</time>
      </trkpt>
      <trkpt lat="42.83967" lon="-0.39596">
        <ele>1559</ele>
        <time>2023-02-11T12:39:36Z</time>
      </trkpt>
      <trkpt lat="42.8396" lon="-0.39573">
        <ele>1557</ele>
        <time>2023-02-11T12:40:38Z</time>
      </trkpt>
      <trkpt lat="42.83955" lon="-0.39549">
        <ele>1553</ele>
        <time>2023-02-11T12:40:54Z</time>
      </trkpt>
      <trkpt lat="42.83955" lon="-0.39524">
        <ele>1548.45</ele>
        <time>2023-02-11T12:42:37Z</time>
      </trkpt>
      <trkpt lat="42.83946" lon="-0.39502">
        <ele>1548</ele>
        <time>2023-02-11T12:42:53Z</time>
      </trkpt>
      <trkpt lat="42.83937" lon="-0.39481">
        <ele>1556</ele>
        <time>2023-02-11T12:43:04Z</time>
      </trkpt>
      <trkpt lat="42.83935" lon="-0.39456">
        <ele>1550</ele>
        <time>2023-02-11T12:43:22Z</time>
      </trkpt>
      <trkpt lat="42.83926" lon="-0.39433">
        <ele>1545</ele>
        <time>2023-02-11T12:44:20Z</time>
      </trkpt>
      <trkpt lat="42.83914" lon="-0.39414">
        <ele>1556.01</ele>
        <time>2023-02-11T12:44:44Z</time>
      </trkpt>
      <trkpt lat="42.83904" lon="-0.39391">
        <ele>1556</ele>
        <time>2023-02-11T12:45:38Z</time>
      </trkpt>
      <trkpt lat="42.83891" lon="-0.39372">
        <ele>1549</ele>
        <time>2023-02-11T12:45:55Z</time>
      </trkpt>
      <trkpt lat="42.83884" lon="-0.39349">
        <ele>1558.86</ele>
        <time>2023-02-11T12:46:05Z</time>
      </trkpt>
      <trkpt lat="42.83874" lon="-0.39328">
        <ele>1549.08</ele>
        <time>2023-02-11T12:46:20Z</time>
      </trkpt>
      <trkpt lat="42.83866" lon="-0.39305">
        <ele>1539.9</ele>
        <time>2023-02-11T12:46:35Z</time>
      </trkpt>
      <trkpt lat="42.83851" lon="-0.39292">
        <ele>1547</ele>
        <time>2023-02-11T12:47:19Z</time>
      </trkpt>
      <trkpt lat="42.83836" lon="-0.39278">
        <ele>1543.1</ele>
        <time>2023-02-11T12:47:34Z</time>
      </trkpt>
      <trkpt lat="42.83817" lon="-0.3928">
        <ele>1543</ele>
        <time>2023-02-11T12:47:57Z</time>
      </trkpt>
      <trkpt lat="42.83798" lon="-0.39276">
        <ele>1528.01</ele>
        <time>2023-02-11T12:48:10Z</time>
      </trkpt>
      <trkpt lat="42.8378" lon="-0.39262">
        <ele>1528</ele>
        <time>2023-02-11T12:48:17Z</time>
      </trkpt>
      <trkpt lat="42.83774" lon="-0.39237">
        <ele>1522.07</ele>
        <time>2023-02-11T12:48:56Z</time>
      </trkpt>
      <trkpt lat="42.83761" lon="-0.39218">
        <ele>1512.27</ele>
        <time>2023-02-11T12:49:20Z</time>
      </trkpt>
      <trkpt lat="42.83745" lon="-0.39205">
        <ele>1517</ele>
        <time>2023-02-11T12:50:16Z</time>
      </trkpt>
      <trkpt lat="42.83748" lon="-0.39175">
        <ele>1506.09</ele>
        <time>2023-02-11T12:50:22Z</time>
      </trkpt>
      <trkpt lat="42.83763" lon="-0.39154">
        <ele>1498.07</ele>
        <time>2023-02-11T12:50:27Z</time>
      </trkpt>
      <trkpt lat="42.83757" lon="-0.3913">
        <ele>1490.22</ele>
        <time>2023-02-11T12:50:32Z</time>
      </trkpt>
      <trkpt lat="42.83737" lon="-0.3913">
        <ele>1491</ele>
        <time>2023-02-11T12:51:39Z</time>
      </trkpt>
      <trkpt lat="42.83735" lon="-0.39104">
        <ele>1481.9</ele>
        <time>2023-02-11T12:51:49Z</time>
      </trkpt>
      <trkpt lat="42.83719" lon="-0.39093">
        <ele>1474.63</ele>
        <time>2023-02-11T12:52:18Z</time>
      </trkpt>
      <trkpt lat="42.83702" lon="-0.39084">
        <ele>1474</ele>
        <time>2023-02-11T12:52:26Z</time>
      </trkpt>
      <trkpt lat="42.83698" lon="-0.39058">
        <ele>1464</ele>
        <time>2023-02-11T12:52:43Z</time>
      </trkpt>
      <trkpt lat="42.83695" lon="-0.3903">
        <ele>1453.21</ele>
        <time>2023-02-11T12:52:51Z</time>
      </trkpt>
      <trkpt lat="42.83702" lon="-0.39005">
        <ele>1444</ele>
        <time>2023-02-11T12:52:58Z</time>
      </trkpt>
      <trkpt lat="42.8371" lon="-0.38979">
        <ele>1437</ele>
        <time>2023-02-11T12:53:55Z</time>
      </trkpt>
      <trkpt lat="42.83704" lon="-0.38955">
        <ele>1429.02</ele>
        <time>2023-02-11T12:54:01Z</time>
      </trkpt>
      <trkpt lat="42.83714" lon="-0.38931">
        <ele>1421.22</ele>
        <time>2023-02-11T12:54:05Z</time>
      </trkpt>
      <trkpt lat="42.83712" lon="-0.38906">
        <ele>1415.16</ele>
        <time>2023-02-11T12:54:10Z</time>
      </trkpt>
      <trkpt lat="42.83725" lon="-0.38889">
        <ele>1404.71</ele>
        <time>2023-02-11T13:00:53Z</time>
      </trkpt>
      <trkpt lat="42.83722" lon="-0.38863">
        <ele>1406.9</ele>
        <time>2023-02-11T13:01:00Z</time>
      </trkpt>
      <trkpt lat="42.83709" lon="-0.38842">
        <ele>1405</ele>
        <time>2023-02-11T13:01:05Z</time>
      </trkpt>
      <trkpt lat="42.83728" lon="-0.38834">
        <ele>1396.31</ele>
        <time>2023-02-11T13:01:15Z</time>
      </trkpt>
      <trkpt lat="42.83746" lon="-0.38829">
        <ele>1393.5</ele>
        <time>2023-02-11T13:01:20Z</time>
      </trkpt>
      <trkpt lat="42.83763" lon="-0.3882">
        <ele>1387.15</ele>
        <time>2023-02-11T13:01:24Z</time>
      </trkpt>
      <trkpt lat="42.83757" lon="-0.38796">
        <ele>1381</ele>
        <time>2023-02-11T13:01:40Z</time>
      </trkpt>
      <trkpt lat="42.83741" lon="-0.38781">
        <ele>1386.84</ele>
        <time>2023-02-11T13:01:45Z</time>
      </trkpt>
      <trkpt lat="42.83758" lon="-0.38768">
        <ele>1372.16</ele>
        <time>2023-02-11T13:01:56Z</time>
      </trkpt>
      <trkpt lat="42.83771" lon="-0.38748">
        <ele>1363.6</ele>
        <time>2023-02-11T13:02:03Z</time>
      </trkpt>
      <trkpt lat="42.83788" lon="-0.38736">
        <ele>1358.01</ele>
        <time>2023-02-11T13:02:08Z</time>
      </trkpt>
      <trkpt lat="42.83808" lon="-0.38734">
        <ele>1357.3</ele>
        <time>2023-02-11T13:02:28Z</time>
      </trkpt>
      <trkpt lat="42.83828" lon="-0.38722">
        <ele>1352.8</ele>
        <time>2023-02-11T13:02:33Z</time>
      </trkpt>
      <trkpt lat="42.8385" lon="-0.38716">
        <ele>1349.07</ele>
        <time>2023-02-11T13:02:37Z</time>
      </trkpt>
      <trkpt lat="42.83873" lon="-0.38713">
        <ele>1348.03</ele>
        <time>2023-02-11T13:02:41Z</time>
      </trkpt>
      <trkpt lat="42.83888" lon="-0.38698">
        <ele>1348</ele>
        <time>2023-02-11T13:02:44Z</time>
      </trkpt>
      <trkpt lat="42.83901" lon="-0.38673">
        <ele>1346.05</ele>
        <time>2023-02-11T13:02:47Z</time>
      </trkpt>
      <trkpt lat="42.83915" lon="-0.38646">
        <ele>1344.06</ele>
        <time>2023-02-11T13:02:50Z</time>
      </trkpt>
      <trkpt lat="42.83931" lon="-0.38636">
        <ele>1342.18</ele>
        <time>2023-02-11T13:02:53Z</time>
      </trkpt>
      <trkpt lat="42.83951" lon="-0.3863">
        <ele>1342</ele>
        <time>2023-02-11T13:02:57Z</time>
      </trkpt>
      <trkpt lat="42.83972" lon="-0.38635">
        <ele>1342</ele>
        <time>2023-02-11T13:03:02Z</time>
      </trkpt>
      <trkpt lat="42.83989" lon="-0.38644">
        <ele>1340</ele>
        <time>2023-02-11T13:03:07Z</time>
      </trkpt>
      <trkpt lat="42.8401" lon="-0.38649">
        <ele>1339.09</ele>
        <time>2023-02-11T13:03:11Z</time>
      </trkpt>
      <trkpt lat="42.8403" lon="-0.38663">
        <ele>1339</ele>
        <time>2023-02-11T13:03:15Z</time>
      </trkpt>
      <trkpt lat="42.8405" lon="-0.38662">
        <ele>1339</ele>
        <time>2023-02-11T13:03:19Z</time>
      </trkpt>
      <trkpt lat="42.84072" lon="-0.38663">
        <ele>1338.03</ele>
        <time>2023-02-11T13:03:23Z</time>
      </trkpt>
      <trkpt lat="42.8409" lon="-0.38674">
        <ele>1334.36</ele>
        <time>2023-02-11T13:03:26Z</time>
      </trkpt>
      <trkpt lat="42.84106" lon="-0.38686">
        <ele>1334.01</ele>
        <time>2023-02-11T13:03:29Z</time>
      </trkpt>
      <trkpt lat="42.84124" lon="-0.38699">
        <ele>1334.58</ele>
        <time>2023-02-11T13:03:33Z</time>
      </trkpt>
      <trkpt lat="42.84143" lon="-0.38714">
        <ele>1332.27</ele>
        <time>2023-02-11T13:03:38Z</time>
      </trkpt>
      <trkpt lat="42.84159" lon="-0.3873">
        <ele>1340.93</ele>
        <time>2023-02-11T13:03:43Z</time>
      </trkpt>
      <trkpt lat="42.84175" lon="-0.3874">
        <ele>1338.08</ele>
        <time>2023-02-11T13:03:48Z</time>
      </trkpt>
      <trkpt lat="42.84196" lon="-0.38742">
        <ele>1333.8</ele>
        <time>2023-02-11T13:03:54Z</time>
      </trkpt>
      <trkpt lat="42.84217" lon="-0.38748">
        <ele>1332</ele>
        <time>2023-02-11T13:03:59Z</time>
      </trkpt>
      <trkpt lat="42.84235" lon="-0.38754">
        <ele>1335</ele>
        <time>2023-02-11T13:04:09Z</time>
      </trkpt>
      <trkpt lat="42.84252" lon="-0.38764">
        <ele>1330.45</ele>
        <time>2023-02-11T13:04:18Z</time>
      </trkpt>
      <trkpt lat="42.84268" lon="-0.38775">
        <ele>1330</ele>
        <time>2023-02-11T13:04:27Z</time>
      </trkpt>
      <trkpt lat="42.84286" lon="-0.38784">
        <ele>1332.05</ele>
        <time>2023-02-11T13:04:35Z</time>
      </trkpt>
      <trkpt lat="42.84304" lon="-0.38797">
        <ele>1332</ele>
        <time>2023-02-11T13:04:43Z</time>
      </trkpt>
      <trkpt lat="42.84321" lon="-0.38811">
        <ele>1334.91</ele>
        <time>2023-02-11T13:04:52Z</time>
      </trkpt>
      <trkpt lat="42.84337" lon="-0.38822">
        <ele>1327.72</ele>
        <time>2023-02-11T13:05:00Z</time>
      </trkpt>
      <trkpt lat="42.84355" lon="-0.38827">
        <ele>1327</ele>
        <time>2023-02-11T13:05:07Z</time>
      </trkpt>
      <trkpt lat="42.84375" lon="-0.38826">
        <ele>1323.01</ele>
        <time>2023-02-11T13:05:14Z</time>
      </trkpt>
      <trkpt lat="42.84393" lon="-0.38819">
        <ele>1322.03</ele>
        <time>2023-02-11T13:05:22Z</time>
      </trkpt>
      <trkpt lat="42.84413" lon="-0.38816">
        <ele>1322</ele>
        <time>2023-02-11T13:05:30Z</time>
      </trkpt>
      <trkpt lat="42.84431" lon="-0.38819">
        <ele>1321</ele>
        <time>2023-02-11T13:05:36Z</time>
      </trkpt>
      <trkpt lat="42.84451" lon="-0.38824">
        <ele>1321</ele>
        <time>2023-02-11T13:05:43Z</time>
      </trkpt>
      <trkpt lat="42.84469" lon="-0.38832">
        <ele>1321</ele>
        <time>2023-02-11T13:05:53Z</time>
      </trkpt>
      <trkpt lat="42.84488" lon="-0.38836">
        <ele>1330</ele>
        <time>2023-02-11T13:06:04Z</time>
      </trkpt>
      <trkpt lat="42.84508" lon="-0.3884">
        <ele>1328.05</ele>
        <time>2023-02-11T13:06:11Z</time>
      </trkpt>
      <trkpt lat="42.84528" lon="-0.38847">
        <ele>1328</ele>
        <time>2023-02-11T13:06:22Z</time>
      </trkpt>
      <trkpt lat="42.84547" lon="-0.38847">
        <ele>1325</ele>
        <time>2023-02-11T13:06:31Z</time>
      </trkpt>
      <trkpt lat="42.84565" lon="-0.38853">
        <ele>1323</ele>
        <time>2023-02-11T13:06:42Z</time>
      </trkpt>
      <trkpt lat="42.84583" lon="-0.38858">
        <ele>1323</ele>
        <time>2023-02-11T13:06:52Z</time>
      </trkpt>
      <trkpt lat="42.84601" lon="-0.38867">
        <ele>1332.99</ele>
        <time>2023-02-11T13:07:00Z</time>
      </trkpt>
      <trkpt lat="42.8462" lon="-0.38874">
        <ele>1330.01</ele>
        <time>2023-02-11T13:07:11Z</time>
      </trkpt>
      <trkpt lat="42.84638" lon="-0.38872">
        <ele>1330</ele>
        <time>2023-02-11T13:07:22Z</time>
      </trkpt>
      <trkpt lat="42.84656" lon="-0.38871">
        <ele>1328</ele>
        <time>2023-02-11T13:07:40Z</time>
      </trkpt>
      <trkpt lat="42.84673" lon="-0.38879">
        <ele>1325.08</ele>
        <time>2023-02-11T13:07:47Z</time>
      </trkpt>
      <trkpt lat="42.84692" lon="-0.38885">
        <ele>1325</ele>
        <time>2023-02-11T13:07:55Z</time>
      </trkpt>
      <trkpt lat="42.84707" lon="-0.38899">
        <ele>1329</ele>
        <time>2023-02-11T13:08:16Z</time>
      </trkpt>
      <trkpt lat="42.84726" lon="-0.38905">
        <ele>1326.01</ele>
        <time>2023-02-11T13:08:41Z</time>
      </trkpt>
      <trkpt lat="42.84747" lon="-0.38908">
        <ele>1326</ele>
        <time>2023-02-11T13:08:54Z</time>
      </trkpt>
      <trkpt lat="42.84767" lon="-0.38909">
        <ele>1324</ele>
        <time>2023-02-11T13:08:59Z</time>
      </trkpt>
      <trkpt lat="42.84785" lon="-0.38907">
        <ele>1321.08</ele>
        <time>2023-02-11T13:09:05Z</time>
      </trkpt>
      <trkpt lat="42.84803" lon="-0.38912">
        <ele>1321</ele>
        <time>2023-02-11T13:09:11Z</time>
      </trkpt>
      <trkpt lat="42.84823" lon="-0.38925">
        <ele>1321.9</ele>
        <time>2023-02-11T13:09:16Z</time>
      </trkpt>
      <trkpt lat="42.84841" lon="-0.3894">
        <ele>1319.27</ele>
        <time>2023-02-11T13:09:20Z</time>
      </trkpt>
      <trkpt lat="42.8486" lon="-0.38946">
        <ele>1324.46</ele>
        <time>2023-02-11T13:09:25Z</time>
      </trkpt>
      <trkpt lat="42.8488" lon="-0.38947">
        <ele>1320</ele>
        <time>2023-02-11T13:09:33Z</time>
      </trkpt>
      <trkpt lat="42.84899" lon="-0.38951">
        <ele>1317</ele>
        <time>2023-02-11T13:09:42Z</time>
      </trkpt>
      <trkpt lat="42.84917" lon="-0.38958">
        <ele>1316.3</ele>
        <time>2023-02-11T13:09:50Z</time>
      </trkpt>
      <trkpt lat="42.84935" lon="-0.38963">
        <ele>1316</ele>
        <time>2023-02-11T13:10:02Z</time>
      </trkpt>
      <trkpt lat="42.84954" lon="-0.38969">
        <ele>1316</ele>
        <time>2023-02-11T13:10:17Z</time>
      </trkpt>
      <trkpt lat="42.84973" lon="-0.38975">
        <ele>1321.69</ele>
        <time>2023-02-11T13:10:25Z</time>
      </trkpt>
      <trkpt lat="42.84992" lon="-0.38978">
        <ele>1322</ele>
        <time>2023-02-11T13:10:33Z</time>
      </trkpt>
      <trkpt lat="42.85013" lon="-0.38982">
        <ele>1321</ele>
        <time>2023-02-11T13:10:43Z</time>
      </trkpt>
      <trkpt lat="42.85035" lon="-0.38982">
        <ele>1316.45</ele>
        <time>2023-02-11T13:10:49Z</time>
      </trkpt>
      <trkpt lat="42.85054" lon="-0.38988">
        <ele>1316</ele>
        <time>2023-02-11T13:10:54Z</time>
      </trkpt>
      <trkpt lat="42.85073" lon="-0.38992">
        <ele>1313.02</ele>
        <time>2023-02-11T13:10:58Z</time>
      </trkpt>
      <trkpt lat="42.85093" lon="-0.38998">
        <ele>1312.03</ele>
        <time>2023-02-11T13:11:03Z</time>
      </trkpt>
      <trkpt lat="42.85112" lon="-0.38998">
        <ele>1310.6</ele>
        <time>2023-02-11T13:11:08Z</time>
      </trkpt>
      <trkpt lat="42.85132" lon="-0.39005">
        <ele>1313.99</ele>
        <time>2023-02-11T13:11:15Z</time>
      </trkpt>
      <trkpt lat="42.8515" lon="-0.39013">
        <ele>1312.02</ele>
        <time>2023-02-11T13:11:21Z</time>
      </trkpt>
      <trkpt lat="42.8517" lon="-0.3902">
        <ele>1309.2</ele>
        <time>2023-02-11T13:11:25Z</time>
      </trkpt>
      <trkpt lat="42.85188" lon="-0.39026">
        <ele>1308.03</ele>
        <time>2023-02-11T13:11:28Z</time>
      </trkpt>
      <trkpt lat="42.85207" lon="-0.39032">
        <ele>1306.9</ele>
        <time>2023-02-11T13:11:31Z</time>
      </trkpt>
      <trkpt lat="42.85225" lon="-0.3904">
        <ele>1305.6</ele>
        <time>2023-02-11T13:11:34Z</time>
      </trkpt>
      <trkpt lat="42.85247" lon="-0.39047">
        <ele>1305.02</ele>
        <time>2023-02-11T13:11:37Z</time>
      </trkpt>
      <trkpt lat="42.85272" lon="-0.39052">
        <ele>1299.16</ele>
        <time>2023-02-11T13:11:40Z</time>
      </trkpt>
      <trkpt lat="42.85284" lon="-0.3908">
        <ele>1300.04</ele>
        <time>2023-02-11T13:11:43Z</time>
      </trkpt>
      <trkpt lat="42.85303" lon="-0.39088">
        <ele>1304.96</ele>
        <time>2023-02-11T13:11:47Z</time>
      </trkpt>
      <trkpt lat="42.85324" lon="-0.39087">
        <ele>1301</ele>
        <time>2023-02-11T13:11:53Z</time>
      </trkpt>
      <trkpt lat="42.8534" lon="-0.391">
        <ele>1298.27</ele>
        <time>2023-02-11T13:11:57Z</time>
      </trkpt>
      <trkpt lat="42.85356" lon="-0.39117">
        <ele>1299.82</ele>
        <time>2023-02-11T13:12:01Z</time>
      </trkpt>
      <trkpt lat="42.85376" lon="-0.39115">
        <ele>1301.94</ele>
        <time>2023-02-11T13:12:05Z</time>
      </trkpt>
      <trkpt lat="42.85393" lon="-0.39099">
        <ele>1298.11</ele>
        <time>2023-02-11T13:12:09Z</time>
      </trkpt>
      <trkpt lat="42.8541" lon="-0.39084">
        <ele>1298</ele>
        <time>2023-02-11T13:12:13Z</time>
      </trkpt>
      <trkpt lat="42.85431" lon="-0.39083">
        <ele>1290.04</ele>
        <time>2023-02-11T13:12:18Z</time>
      </trkpt>
      <trkpt lat="42.85452" lon="-0.39092">
        <ele>1292.15</ele>
        <time>2023-02-11T13:12:22Z</time>
      </trkpt>
      <trkpt lat="42.8547" lon="-0.39085">
        <ele>1292</ele>
        <time>2023-02-11T13:12:25Z</time>
      </trkpt>
      <trkpt lat="42.85489" lon="-0.39084">
        <ele>1291.96</ele>
        <time>2023-02-11T13:12:29Z</time>
      </trkpt>
      <trkpt lat="42.85508" lon="-0.39077">
        <ele>1290.02</ele>
        <time>2023-02-11T13:12:36Z</time>
      </trkpt>
      <trkpt lat="42.85523" lon="-0.39061">
        <ele>1290</ele>
        <time>2023-02-11T13:12:41Z</time>
      </trkpt>
      <trkpt lat="42.85541" lon="-0.39062">
        <ele>1290</ele>
        <time>2023-02-11T13:12:45Z</time>
      </trkpt>
      <trkpt lat="42.85561" lon="-0.39062">
        <ele>1289.09</ele>
        <time>2023-02-11T13:12:49Z</time>
      </trkpt>
      <trkpt lat="42.85577" lon="-0.39075">
        <ele>1289</ele>
        <time>2023-02-11T13:12:53Z</time>
      </trkpt>
      <trkpt lat="42.85584" lon="-0.39101">
        <ele>1286.6</ele>
        <time>2023-02-11T13:13:02Z</time>
      </trkpt>
      <trkpt lat="42.85596" lon="-0.39124">
        <ele>1285</ele>
        <time>2023-02-11T13:13:09Z</time>
      </trkpt>
      <trkpt lat="42.85614" lon="-0.39133">
        <ele>1283.18</ele>
        <time>2023-02-11T13:13:15Z</time>
      </trkpt>
      <trkpt lat="42.85631" lon="-0.39147">
        <ele>1284.95</ele>
        <time>2023-02-11T13:13:22Z</time>
      </trkpt>
      <trkpt lat="42.85645" lon="-0.39164">
        <ele>1283</ele>
        <time>2023-02-11T13:13:31Z</time>
      </trkpt>
      <trkpt lat="42.85661" lon="-0.39176">
        <ele>1286</ele>
        <time>2023-02-11T13:13:46Z</time>
      </trkpt>
      <trkpt lat="42.85679" lon="-0.39181">
        <ele>1285</ele>
        <time>2023-02-11T13:14:04Z</time>
      </trkpt>
      <trkpt lat="42.85698" lon="-0.39183">
        <ele>1284.09</ele>
        <time>2023-02-11T13:14:13Z</time>
      </trkpt>
      <trkpt lat="42.85719" lon="-0.39181">
        <ele>1284</ele>
        <time>2023-02-11T13:14:23Z</time>
      </trkpt>
      <trkpt lat="42.85737" lon="-0.39183">
        <ele>1282</ele>
        <time>2023-02-11T13:14:28Z</time>
      </trkpt>
      <trkpt lat="42.85754" lon="-0.39196">
        <ele>1285.5</ele>
        <time>2023-02-11T13:14:33Z</time>
      </trkpt>
      <trkpt lat="42.85776" lon="-0.39191">
        <ele>1282.45</ele>
        <time>2023-02-11T13:14:38Z</time>
      </trkpt>
      <trkpt lat="42.85799" lon="-0.39192">
        <ele>1281.01</ele>
        <time>2023-02-11T13:14:42Z</time>
      </trkpt>
      <trkpt lat="42.8582" lon="-0.39198">
        <ele>1283.67</ele>
        <time>2023-02-11T13:14:46Z</time>
      </trkpt>
      <trkpt lat="42.85837" lon="-0.39205">
        <ele>1281.19</ele>
        <time>2023-02-11T13:14:49Z</time>
      </trkpt>
      <trkpt lat="42.85855" lon="-0.39218">
        <ele>1280.03</ele>
        <time>2023-02-11T13:14:52Z</time>
      </trkpt>
      <trkpt lat="42.8587" lon="-0.39239">
        <ele>1280</ele>
        <time>2023-02-11T13:14:55Z</time>
      </trkpt>
      <trkpt lat="42.85878" lon="-0.39264">
        <ele>1281.82</ele>
        <time>2023-02-11T13:14:58Z</time>
      </trkpt>
      <trkpt lat="42.85894" lon="-0.3928">
        <ele>1285.64</ele>
        <time>2023-02-11T13:15:03Z</time>
      </trkpt>
      <trkpt lat="42.85912" lon="-0.39287">
        <ele>1286</ele>
        <time>2023-02-11T13:15:19Z</time>
      </trkpt>
      <trkpt lat="42.8593" lon="-0.39289">
        <ele>1287</ele>
        <time>2023-02-11T13:15:29Z</time>
      </trkpt>
      <trkpt lat="42.8595" lon="-0.39283">
        <ele>1287.91</ele>
        <time>2023-02-11T13:15:35Z</time>
      </trkpt>
      <trkpt lat="42.85968" lon="-0.39269">
        <ele>1284.01</ele>
        <time>2023-02-11T13:15:42Z</time>
      </trkpt>
      <trkpt lat="42.85986" lon="-0.39258">
        <ele>1285</ele>
        <time>2023-02-11T13:15:50Z</time>
      </trkpt>
      <trkpt lat="42.86" lon="-0.39242">
        <ele>1281.71</ele>
        <time>2023-02-11T13:15:59Z</time>
      </trkpt>
      <trkpt lat="42.86016" lon="-0.39231">
        <ele>1282</ele>
        <time>2023-02-11T13:16:07Z</time>
      </trkpt>
      <trkpt lat="42.86036" lon="-0.39221">
        <ele>1280.6</ele>
        <time>2023-02-11T13:16:11Z</time>
      </trkpt>
      <trkpt lat="42.86054" lon="-0.39211">
        <ele>1280.02</ele>
        <time>2023-02-11T13:16:14Z</time>
      </trkpt>
      <trkpt lat="42.86071" lon="-0.39202">
        <ele>1280</ele>
        <time>2023-02-11T13:16:17Z</time>
      </trkpt>
      <trkpt lat="42.86092" lon="-0.39194">
        <ele>1274.4</ele>
        <time>2023-02-11T13:16:21Z</time>
      </trkpt>
      <trkpt lat="42.86111" lon="-0.39194">
        <ele>1272.02</ele>
        <time>2023-02-11T13:16:25Z</time>
      </trkpt>
      <trkpt lat="42.86129" lon="-0.39196">
        <ele>1276.99</ele>
        <time>2023-02-11T13:16:30Z</time>
      </trkpt>
      <trkpt lat="42.86148" lon="-0.39202">
        <ele>1273.03</ele>
        <time>2023-02-11T13:16:36Z</time>
      </trkpt>
      <trkpt lat="42.86168" lon="-0.39202">
        <ele>1271.6</ele>
        <time>2023-02-11T13:16:45Z</time>
      </trkpt>
      <trkpt lat="42.86187" lon="-0.39211">
        <ele>1271</ele>
        <time>2023-02-11T13:16:52Z</time>
      </trkpt>
      <trkpt lat="42.86205" lon="-0.39219">
        <ele>1270.01</ele>
        <time>2023-02-11T13:16:58Z</time>
      </trkpt>
      <trkpt lat="42.86223" lon="-0.39223">
        <ele>1271.75</ele>
        <time>2023-02-11T13:17:02Z</time>
      </trkpt>
      <trkpt lat="42.86249" lon="-0.39236">
        <ele>1271</ele>
        <time>2023-02-11T13:17:07Z</time>
      </trkpt>
      <trkpt lat="42.86269" lon="-0.39246">
        <ele>1269.02</ele>
        <time>2023-02-11T13:17:11Z</time>
      </trkpt>
      <trkpt lat="42.86289" lon="-0.39246">
        <ele>1267.05</ele>
        <time>2023-02-11T13:17:16Z</time>
      </trkpt>
      <trkpt lat="42.86306" lon="-0.39237">
        <ele>1262.8</ele>
        <time>2023-02-11T13:17:20Z</time>
      </trkpt>
      <trkpt lat="42.86328" lon="-0.39232">
        <ele>1261</ele>
        <time>2023-02-11T13:17:25Z</time>
      </trkpt>
      <trkpt lat="42.86347" lon="-0.39232">
        <ele>1259.05</ele>
        <time>2023-02-11T13:17:29Z</time>
      </trkpt>
      <trkpt lat="42.86359" lon="-0.39256">
        <ele>1259.91</ele>
        <time>2023-02-11T13:17:35Z</time>
      </trkpt>
      <trkpt lat="42.86363" lon="-0.3928">
        <ele>1259</ele>
        <time>2023-02-11T13:17:45Z</time>
      </trkpt>
    </trkseg>
  </trk>
</gpx>